Time;durP1;ratioP1;P1;durP2;ratioP2;P2;SDS_P1;SDS_P2;PMS_P1;PMS_P2;Temp;Humidity;BMP_temperature;BMP_pressure;BME280_temperature;BME280_humidity;BME280_pressure;Samples;Min_cycle;Max_cycle;Signal;HPM_P1;HPM_P2
2021/09/28 00:00:37;;;;;;;22.48;17.88;;;487.30;2380.80;;;;;;4868344;29;20165;-54
2021/09/28 00:03:04;;;;;;;25.85;19.27;;;487.30;2380.80;;;;;;4861610;29;20041;-66
2021/09/28 00:05:30;;;;;;;28.60;19.27;;;487.30;2380.80;;;;;;4869636;29;20049;-55
2021/09/28 00:07:56;;;;;;;24.58;20.17;;;487.30;2380.80;;;;;;4869353;29;20029;-55
2021/09/28 00:10:22;;;;;;;26.55;19.02;;;487.30;2380.80;;;;;;4865659;29;20040;-54
2021/09/28 00:12:47;;;;;;;23.60;18.27;;;487.30;2380.80;;;;;;4867238;29;20100;-54
2021/09/28 00:15:16;;;;;;;25.73;17.95;;;487.30;2380.80;;;;;;4868357;29;20040;-55
2021/09/28 00:17:42;;;;;;;21.80;17.00;;;487.30;2380.80;;;;;;4868267;29;20104;-55
2021/09/28 00:20:08;;;;;;;23.42;17.90;;;487.30;2380.80;;;;;;4865608;29;20622;-58
2021/09/28 00:22:35;;;;;;;22.52;17.85;;;512.00;2380.80;;;;;;4867825;29;20017;-55
2021/09/28 00:25:02;;;;;;;22.98;16.23;;;512.00;2380.80;;;;;;4860482;29;20045;-55
2021/09/28 00:27:29;;;;;;;23.80;17.83;;;512.00;2380.80;;;;;;4858252;29;20036;-54
2021/09/28 00:29:55;;;;;;;22.77;17.50;;;487.30;2380.80;;;;;;4858045;29;20037;-54
2021/09/28 00:32:21;;;;;;;21.45;16.92;;;512.00;2380.80;;;;;;4858127;29;20507;-56
2021/09/28 00:34:46;;;;;;;21.42;17.42;;;512.10;2380.80;;;;;;4858120;29;20033;-54
2021/09/28 00:37:12;;;;;;;23.30;18.65;;;512.00;2380.80;;;;;;4858108;29;20029;-55
2021/09/28 00:39:38;;;;;;;24.23;17.77;;;512.00;2380.80;;;;;;4858083;29;20113;-56
2021/09/28 00:42:05;;;;;;;24.60;19.25;;;512.00;2380.80;;;;;;4857918;29;20051;-55
2021/09/28 00:44:41;;;;;;;26.08;18.83;;;487.30;2380.80;;;;;;4857930;29;20481;-57
2021/09/28 00:47:10;;;;;;;22.45;18.83;;;512.00;2380.80;;;;;;4858024;29;20037;-57
2021/09/28 00:49:39;;;;;;;23.10;18.02;;;487.30;2380.80;;;;;;4858028;29;20121;-54
2021/09/28 00:52:06;;;;;;;28.73;19.48;;;487.30;2380.80;;;;;;4857949;29;20028;-54
2021/09/28 00:54:32;;;;;;;23.73;17.20;;;487.30;2380.80;;;;;;4857688;29;20120;-55
2021/09/28 00:56:58;;;;;;;22.55;17.63;;;487.30;2380.80;;;;;;4858042;29;20121;-54
2021/09/28 00:59:24;;;;;;;25.80;18.52;;;487.30;2380.80;;;;;;4857600;29;20065;-54
2021/09/28 01:01:50;;;;;;;23.15;17.20;;;487.20;2380.80;;;;;;4857627;29;20112;-55
2021/09/28 01:04:18;;;;;;;24.65;19.15;;;487.20;2380.80;;;;;;4857671;29;20048;-54
2021/09/28 01:06:45;;;;;;;25.42;19.08;;;487.20;2380.80;;;;;;4857607;29;20532;-55
2021/09/28 01:09:12;;;;;;;24.90;18.52;;;487.20;2380.80;;;;;;4857499;29;20033;-55
2021/09/28 01:11:40;;;;;;;32.03;19.23;;;487.20;2380.80;;;;;;4858002;29;20110;-57
2021/09/28 01:14:08;;;;;;;25.35;17.50;;;487.30;2380.80;;;;;;4857986;29;20161;-54
2021/09/28 01:16:34;;;;;;;24.88;19.55;;;487.30;2380.80;;;;;;4857552;29;20488;-55
2021/09/28 01:19:00;;;;;;;27.58;19.17;;;487.30;2380.80;;;;;;4857597;29;20030;-57
2021/09/28 01:21:26;;;;;;;25.67;18.83;;;487.30;2380.80;;;;;;4857578;29;20066;-54
2021/09/28 01:23:52;;;;;;;24.38;19.50;;;487.30;2380.80;;;;;;4855554;29;20084;-57
2021/09/28 01:26:24;;;;;;;25.58;18.83;;;487.20;2380.80;;;;;;4857649;29;20112;-54
2021/09/28 01:28:51;;;;;;;25.35;19.58;;;487.20;2380.80;;;;;;4857440;29;20117;-54
2021/09/28 01:31:17;;;;;;;22.08;18.40;;;487.20;2380.80;;;;;;4857529;29;20447;-60
2021/09/28 01:33:43;;;;;;;23.30;19.15;;;487.10;2380.80;;;;;;4857347;29;20396;-55
2021/09/28 01:36:09;;;;;;;25.65;18.85;;;487.10;2380.80;;;;;;4857562;29;20041;-55
2021/09/28 01:38:35;;;;;;;24.13;20.48;;;487.10;2380.80;;;;;;4857506;29;20480;-58
2021/09/28 01:41:01;;;;;;;24.67;20.83;;;487.10;2380.80;;;;;;4857435;29;20033;-57
2021/09/28 01:43:26;;;;;;;26.30;20.02;;;487.10;2380.80;;;;;;4857526;29;20026;-57
2021/09/28 01:45:58;;;;;;;26.30;19.83;;;487.30;2380.80;;;;;;4841048;29;20026;-56
2021/09/28 01:48:29;;;;;;;25.33;18.23;;;487.30;2380.80;;;;;;4857348;29;20403;-56
2021/09/28 01:50:55;;;;;;;26.35;18.83;;;487.20;2380.80;;;;;;4857483;29;20061;-55
2021/09/28 01:53:21;;;;;;;26.25;18.77;;;487.20;2380.80;;;;;;4857167;29;20434;-57
2021/09/28 01:55:46;;;;;;;23.13;18.83;;;487.30;2380.80;;;;;;4857671;29;20054;-58
2021/09/28 01:58:14;;;;;;;26.30;19.45;;;487.30;2380.80;;;;;;4857126;29;20037;-54
2021/09/28 02:00:40;;;;;;;22.13;18.80;;;487.20;2380.80;;;;;;4856860;29;20039;-55
2021/09/28 02:03:06;;;;;;;27.33;18.60;;;487.30;2380.80;;;;;;4857443;29;20121;-56
2021/09/28 02:05:32;;;;;;;22.65;18.02;;;487.30;2380.80;;;;;;4857121;29;20038;-54
2021/09/28 02:07:58;;;;;;;31.48;19.52;;;487.30;2380.80;;;;;;4857478;29;20037;-59
2021/09/28 02:10:24;;;;;;;28.05;20.02;;;487.30;2380.80;;;;;;4857183;29;20161;-57
2021/09/28 02:12:50;;;;;;;27.13;20.08;;;487.20;2380.80;;;;;;4857187;29;20108;-55
2021/09/28 02:15:16;;;;;;;22.13;17.67;;;487.20;2380.80;;;;;;4860580;29;20501;-56
2021/09/28 02:17:41;;;;;;;27.55;19.88;;;487.20;2380.80;;;;;;4860441;29;20026;-57
2021/09/28 02:20:09;;;;;;;26.70;18.92;;;487.20;2380.80;;;;;;4860437;29;20472;-55
2021/09/28 02:22:34;;;;;;;30.23;21.02;;;487.20;2380.80;;;;;;4860531;29;20026;-58
2021/09/28 02:25:00;;;;;;;23.38;20.13;;;487.20;2380.80;;;;;;4860302;29;20045;-55
2021/09/28 02:27:26;;;;;;;24.05;19.33;;;487.20;2380.80;;;;;;4860537;29;20427;-62
2021/09/28 02:29:52;;;;;;;24.42;19.13;;;487.20;2380.80;;;;;;4860103;29;20069;-58
2021/09/28 02:32:17;;;;;;;32.45;20.25;;;487.10;2380.80;;;;;;4860415;29;20044;-64
2021/09/28 02:34:43;;;;;;;22.23;18.50;;;487.10;2380.80;;;;;;4860099;29;20026;-62
2021/09/28 02:37:11;;;;;;;26.08;20.52;;;487.20;2380.80;;;;;;4860298;29;20033;-56
2021/09/28 02:39:39;;;;;;;25.30;19.92;;;487.20;2380.80;;;;;;4859999;29;20033;-55
2021/09/28 02:42:06;;;;;;;25.70;19.50;;;487.30;2380.80;;;;;;4860298;29;20080;-57
2021/09/28 02:44:32;;;;;;;23.38;20.02;;;487.30;2380.80;;;;;;4859703;29;20459;-55
2021/09/28 02:46:58;;;;;;;31.77;18.63;;;487.20;2380.80;;;;;;4860289;29;20105;-55
2021/09/28 02:49:24;;;;;;;23.77;19.98;;;487.20;2380.80;;;;;;4859870;29;20076;-56
2021/09/28 02:51:49;;;;;;;24.20;19.42;;;487.20;2380.80;;;;;;4859776;29;20030;-55
2021/09/28 02:54:15;;;;;;;28.67;20.42;;;487.20;2380.80;;;;;;4859827;29;20033;-58
2021/09/28 02:56:41;;;;;;;29.77;20.05;;;487.20;2380.80;;;;;;4859933;29;20032;-59
2021/09/28 02:59:06;;;;;;;30.73;18.80;;;487.20;2380.80;;;;;;4860249;29;20369;-57
2021/09/28 03:01:32;;;;;;;26.10;20.10;;;487.10;2380.80;;;;;;4859856;29;20026;-61
2021/09/28 03:03:58;;;;;;;28.58;19.67;;;487.10;2380.80;;;;;;4859941;29;20045;-54
2021/09/28 03:06:23;;;;;;;26.10;19.65;;;487.10;2380.80;;;;;;4859765;29;20029;-55
2021/09/28 03:08:49;;;;;;;25.27;19.05;;;487.00;2380.80;;;;;;4859862;29;20429;-63
2021/09/28 03:11:16;;;;;;;27.38;20.40;;;487.10;2380.80;;;;;;4859634;29;20036;-59
2021/09/28 03:13:41;;;;;;;25.15;19.60;;;487.10;2380.80;;;;;;4859533;29;20025;-54
2021/09/28 03:16:07;;;;;;;27.60;19.42;;;487.10;2380.80;;;;;;4859615;29;20396;-55
2021/09/28 03:18:33;;;;;;;28.38;20.67;;;487.10;2380.80;;;;;;4859404;29;20032;-54
2021/09/28 03:20:58;;;;;;;27.83;19.55;;;487.10;2380.80;;;;;;4859664;29;20037;-54
2021/09/28 03:23:24;;;;;;;27.40;20.45;;;487.00;2380.80;;;;;;4859176;29;20105;-54
2021/09/28 03:25:50;;;;;;;27.52;21.25;;;487.10;2380.80;;;;;;4858849;29;20041;-55
2021/09/28 03:28:16;;;;;;;32.17;21.20;;;487.00;2380.80;;;;;;4859219;29;20030;-65
2021/09/28 03:30:43;;;;;;;27.63;21.13;;;487.00;2380.80;;;;;;4858713;29;20065;-67
2021/09/28 03:33:09;;;;;;;27.80;21.02;;;487.10;2380.80;;;;;;4859214;29;20093;-64
2021/09/28 03:35:34;;;;;;;27.23;20.65;;;487.00;2380.80;;;;;;4859182;29;20042;-66
2021/09/28 03:38:00;;;;;;;24.77;20.48;;;487.00;2380.80;;;;;;4859306;29;20021;-60
2021/09/28 03:40:29;;;;;;;28.08;20.83;;;487.00;2380.80;;;;;;4859047;29;20025;-59
2021/09/28 03:42:55;;;;;;;29.10;21.15;;;487.00;2380.80;;;;;;4859077;29;20033;-54
2021/09/28 03:45:21;;;;;;;26.35;20.58;;;487.00;2380.80;;;;;;4858750;29;20089;-55
2021/09/28 03:47:47;;;;;;;26.85;20.65;;;486.90;2380.80;;;;;;4859175;29;20426;-56
2021/09/28 03:50:13;;;;;;;27.80;20.80;;;486.90;2380.80;;;;;;4858755;29;20029;-55
2021/09/28 03:52:38;;;;;;;32.35;21.90;;;486.90;2380.80;;;;;;4858957;29;20077;-59
2021/09/28 03:55:05;;;;;;;28.40;21.45;;;486.90;2380.80;;;;;;4858799;29;20021;-55
2021/09/28 03:57:31;;;;;;;28.63;21.65;;;487.00;2380.80;;;;;;4858975;29;20120;-55
2021/09/28 03:59:56;;;;;;;26.35;21.73;;;487.00;2380.80;;;;;;4858777;29;20507;-55
2021/09/28 04:02:23;;;;;;;30.55;22.45;;;486.90;2380.80;;;;;;4858514;29;20561;-54
2021/09/28 04:04:49;;;;;;;25.50;20.40;;;486.90;2380.80;;;;;;4858544;29;20048;-55
2021/09/28 04:07:15;;;;;;;28.63;21.23;;;486.90;2380.80;;;;;;4858774;29;20030;-55
2021/09/28 04:09:40;;;;;;;26.90;22.55;;;486.90;2380.80;;;;;;4858527;29;20034;-54
2021/09/28 04:12:07;;;;;;;30.38;21.70;;;486.90;2380.80;;;;;;4858505;29;20017;-54
2021/09/28 04:14:34;;;;;;;33.05;23.27;;;486.90;2380.80;;;;;;4858420;29;20030;-54
2021/09/28 04:17:00;;;;;;;31.05;22.38;;;486.90;2380.80;;;;;;4841735;29;20445;-54
2021/09/28 04:19:25;;;;;;;27.17;21.75;;;486.90;2380.80;;;;;;4858470;29;20105;-55
2021/09/28 04:21:51;;;;;;;28.85;21.83;;;486.90;2380.80;;;;;;4858260;29;20040;-55
2021/09/28 04:24:17;;;;;;;28.15;22.33;;;486.80;2380.80;;;;;;4858241;29;20084;-54
2021/09/28 04:26:43;;;;;;;29.15;22.77;;;486.80;2380.80;;;;;;4858135;29;20042;-54
2021/09/28 04:29:08;;;;;;;31.80;23.35;;;486.80;2380.80;;;;;;4858433;29;20502;-55
2021/09/28 04:31:34;;;;;;;39.40;25.35;;;486.70;2380.80;;;;;;4856657;29;20081;-55
2021/09/28 04:34:00;;;;;;;31.95;23.45;;;486.70;2380.80;;;;;;4857938;29;20494;-55
2021/09/28 04:36:28;;;;;;;35.67;26.33;;;486.70;2380.80;;;;;;4857642;29;20049;-55
2021/09/28 04:38:54;;;;;;;31.80;23.85;;;486.70;2380.80;;;;;;4858065;29;20385;-56
2021/09/28 04:41:20;;;;;;;32.05;26.10;;;486.70;2380.80;;;;;;4857964;29;20053;-54
2021/09/28 04:43:47;;;;;;;34.22;25.50;;;486.70;2380.80;;;;;;4858284;29;20069;-55
2021/09/28 04:46:13;;;;;;;37.08;25.30;;;486.70;2380.80;;;;;;4857771;29;20056;-54
2021/09/28 04:48:39;;;;;;;34.83;25.92;;;486.80;2380.80;;;;;;4858188;29;20065;-55
2021/09/28 04:51:05;;;;;;;38.22;28.33;;;486.80;2380.80;;;;;;4858158;29;20108;-54
2021/09/28 04:53:31;;;;;;;45.20;27.98;;;486.70;2380.80;;;;;;4857880;29;20033;-54
2021/09/28 04:55:56;;;;;;;37.22;28.35;;;486.70;2380.80;;;;;;4841059;29;20041;-59
2021/09/28 04:58:23;;;;;;;36.65;27.52;;;486.70;2380.80;;;;;;4857789;29;20374;-55
2021/09/28 05:00:50;;;;;;;38.78;27.77;;;486.70;2380.80;;;;;;4857745;29;20038;-55
2021/09/28 05:03:15;;;;;;;36.47;27.30;;;486.70;2380.80;;;;;;4858040;29;20040;-56
2021/09/28 05:05:41;;;;;;;38.17;26.27;;;486.70;2380.80;;;;;;4857595;29;20477;-55
2021/09/28 05:08:07;;;;;;;36.60;25.95;;;486.70;2380.80;;;;;;4857771;29;20055;-52
2021/09/28 05:10:33;;;;;;;40.30;28.90;;;486.70;2380.80;;;;;;4857642;29;20070;-64
2021/09/28 05:12:58;;;;;;;41.33;30.50;;;486.80;2380.80;;;;;;4857733;29;20038;-54
2021/09/28 05:15:24;;;;;;;41.10;29.75;;;486.80;2380.80;;;;;;4857504;29;20098;-56
2021/09/28 05:17:50;;;;;;;37.80;28.67;;;487.00;2380.80;;;;;;4857383;29;20036;-55
2021/09/28 05:20:16;;;;;;;37.42;26.95;;;487.00;2380.80;;;;;;4857780;29;20385;-54
2021/09/28 05:22:41;;;;;;;40.55;27.17;;;487.00;2380.80;;;;;;4857552;29;20036;-52
2021/09/28 05:25:07;;;;;;;38.88;26.85;;;487.20;2380.80;;;;;;4857705;29;20421;-55
2021/09/28 05:27:33;;;;;;;43.53;27.25;;;487.20;2380.80;;;;;;4857534;29;20434;-54
2021/09/28 05:29:59;;;;;;;38.08;26.58;;;487.30;2380.80;;;;;;4860406;29;20041;-54
2021/09/28 05:32:25;;;;;;;36.97;24.92;;;512.00;2380.80;;;;;;4848370;29;20033;-55
2021/09/28 05:34:51;;;;;;;35.08;25.02;;;512.10;2380.80;;;;;;4861556;29;20052;-55
2021/09/28 05:37:16;;;;;;;31.02;25.42;;;512.40;2380.80;;;;;;4872613;29;20033;-54
2021/09/28 05:39:42;;;;;;;34.25;25.30;;;512.70;2380.80;;;;;;4875361;29;20073;-54
2021/09/28 05:42:09;;;;;;;31.55;25.67;;;512.80;2380.80;;;;;;4876059;29;20543;-55
2021/09/28 05:44:34;;;;;;;37.00;25.33;;;512.90;2380.80;;;;;;4872429;29;20088;-60
2021/09/28 05:47:00;;;;;;;36.00;25.20;;;537.80;2406.40;;;;;;4875544;29;20033;-56
2021/09/28 05:49:26;;;;;;;35.22;26.08;;;537.90;2406.40;;;;;;4878546;29;20116;-55
2021/09/28 05:51:54;;;;;;;36.15;25.30;;;538.00;2406.40;;;;;;4879373;29;20029;-59
2021/09/28 05:54:21;;;;;;;35.47;25.80;;;538.10;2406.40;;;;;;4879303;29;20173;-55
2021/09/28 05:56:48;;;;;;;34.55;25.10;;;538.40;2406.40;;;;;;4879420;29;20025;-56
2021/09/28 05:59:13;;;;;;;30.88;24.90;;;538.20;2406.40;;;;;;4879227;29;20116;-57
2021/09/28 06:01:39;;;;;;;35.65;26.90;;;538.20;2406.40;;;;;;4879411;29;20599;-54
2021/09/28 06:04:05;;;;;;;32.78;26.15;;;538.30;2406.40;;;;;;4879350;29;20048;-53
2021/09/28 06:06:31;;;;;;;32.10;25.85;;;589.30;2432.00;;;;;;4879299;29;20033;-53
2021/09/28 06:08:57;;;;;;;33.78;25.25;;;614.60;2432.00;;;;;;4879374;29;20045;-54
2021/09/28 06:11:23;;;;;;;27.95;22.83;;;614.70;2432.00;;;;;;4878994;29;20075;-53
2021/09/28 06:13:50;;;;;;;36.85;26.05;;;640.70;2432.00;;;;;;4879016;29;20032;-53
2021/09/28 06:16:16;;;;;;;28.67;25.27;;;665.90;2432.00;;;;;;4862158;29;20045;-54
2021/09/28 06:18:42;;;;;;;27.13;23.05;;;691.60;2432.00;;;;;;4879177;29;20072;-62
2021/09/28 06:21:07;;;;;;;35.28;26.67;;;666.50;2432.00;;;;;;4877715;29;20043;-56
2021/09/28 06:23:33;;;;;;;31.17;26.20;;;640.90;2432.00;;;;;;4877247;29;20052;-53
2021/09/28 06:25:59;;;;;;;32.30;24.40;;;691.40;2432.00;;;;;;4877424;29;20149;-58
2021/09/28 06:28:25;;;;;;;31.23;25.88;;;665.90;2432.00;;;;;;4860145;29;20064;-55
2021/09/28 06:30:50;;;;;;;29.75;26.05;;;640.30;2432.00;;;;;;4877085;29;20085;-55
2021/09/28 06:33:16;;;;;;;34.67;25.35;;;640.30;2432.00;;;;;;4877308;29;20429;-52
2021/09/28 06:35:42;;;;;;;29.67;24.55;;;640.00;2432.00;;;;;;4876618;29;20025;-53
2021/09/28 06:38:08;;;;;;;33.67;26.05;;;615.00;2432.00;;;;;;4877261;29;20052;-53
2021/09/28 06:40:34;;;;;;;27.77;24.73;;;615.10;2432.00;;;;;;4877150;29;20664;-52
2021/09/28 06:43:00;;;;;;;30.60;24.27;;;615.10;2432.00;;;;;;4877099;29;20032;-53
2021/09/28 06:45:26;;;;;;;27.80;24.67;;;640.00;2432.00;;;;;;4876932;29;20048;-53
2021/09/28 06:47:52;;;;;;;28.08;25.15;;;665.60;2432.00;;;;;;4876619;29;20081;-53
2021/09/28 06:50:18;;;;;;;25.80;23.02;;;691.80;2432.00;;;;;;4877102;29;20025;-52
2021/09/28 06:52:44;;;;;;;28.30;23.40;;;717.20;2432.00;;;;;;4876938;29;20062;-52
2021/09/28 06:55:11;;;;;;;26.90;23.48;;;691.90;2432.00;;;;;;4876797;29;20535;-53
2021/09/28 06:57:37;;;;;;;26.85;23.15;;;666.00;2432.00;;;;;;4877063;29;20037;-54
2021/09/28 07:00:06;;;;;;;25.58;22.75;;;640.50;2432.00;;;;;;4875645;29;20039;-52
2021/09/28 07:02:33;;;;;;;30.17;23.52;;;640.10;2432.00;;;;;;4876720;29;20041;-52
2021/09/28 07:04:58;;;;;;;27.58;21.73;;;615.00;2432.00;;;;;;4876718;29;20037;-53
2021/09/28 07:07:25;;;;;;;26.88;21.60;;;615.20;2432.00;;;;;;4877975;29;20035;-53
2021/09/28 07:09:51;;;;;;;25.15;21.10;;;615.20;2432.00;;;;;;4878161;29;20499;-53
2021/09/28 07:12:16;;;;;;;21.60;18.42;;;666.20;2432.00;;;;;;4878351;29;20100;-53
2021/09/28 07:14:42;;;;;;;19.35;17.05;;;666.30;2432.00;;;;;;4877944;29;20429;-54
2021/09/28 07:17:08;;;;;;;21.17;19.05;;;666.00;2432.00;;;;;;4878343;29;20477;-54
2021/09/28 07:19:34;;;;;;;19.90;18.02;;;666.00;2432.00;;;;;;4877764;29;20025;-53
2021/09/28 07:21:59;;;;;;;18.98;17.17;;;692.10;2432.00;;;;;;4878052;29;20160;-53
2021/09/28 07:24:25;;;;;;;22.67;16.67;;;717.10;2432.00;;;;;;4877895;29;20068;-56
2021/09/28 07:26:51;;;;;;;14.32;13.02;;;742.90;2432.00;;;;;;4861064;29;20109;-56
2021/09/28 07:29:18;;;;;;;16.75;15.10;;;692.00;2432.00;;;;;;4877830;29;20029;-55
2021/09/28 07:31:45;;;;;;;15.93;14.23;;;717.10;2432.00;;;;;;4877527;29;20049;-56
2021/09/28 07:34:11;;;;;;;15.02;13.50;;;717.20;2432.00;;;;;;4877475;29;20029;-56
2021/09/28 07:36:37;;;;;;;16.42;14.80;;;691.30;2432.00;;;;;;4877697;29;20025;-56
2021/09/28 07:39:04;;;;;;;15.63;14.02;;;666.00;2432.00;;;;;;4877583;29;20469;-55
2021/09/28 07:41:32;;;;;;;18.15;15.13;;;665.90;2432.00;;;;;;4877581;29;20039;-55
2021/09/28 07:43:57;;;;;;;16.65;15.07;;;666.00;2432.00;;;;;;4877690;29;20484;-55
2021/09/28 07:46:23;;;;;;;16.55;14.93;;;716.90;2432.00;;;;;;4877342;29;20041;-55
2021/09/28 07:48:49;;;;;;;15.95;14.38;;;717.10;2432.00;;;;;;4877494;29;20104;-55
2021/09/28 07:51:15;;;;;;;17.05;15.25;;;717.70;2432.00;;;;;;4877313;29;20032;-55
2021/09/28 07:53:42;;;;;;;19.08;15.57;;;716.80;2432.00;;;;;;4876591;29;20021;-53
2021/09/28 07:56:07;;;;;;;17.13;15.38;;;691.20;2432.00;;;;;;4877449;29;20044;-54
2021/09/28 07:58:34;;;;;;;15.95;14.38;;;665.90;2432.00;;;;;;4877061;29;20028;-55
2021/09/28 08:01:00;;;;;;;18.95;16.58;;;640.70;2432.00;;;;;;4877406;29;20471;-55
2021/09/28 08:03:26;;;;;;;15.23;13.65;;;640.90;2432.00;;;;;;4877292;29;20028;-55
2021/09/28 08:05:51;;;;;;;18.92;15.85;;;640.70;2432.00;;;;;;4875165;29;20535;-55
2021/09/28 08:08:17;;;;;;;15.57;14.05;;;640.50;2432.00;;;;;;4877313;29;20033;-55
2021/09/28 08:10:44;;;;;;;21.30;15.30;;;640.90;2432.00;;;;;;4875978;29;20477;-55
2021/09/28 08:13:10;;;;;;;15.75;13.93;;;640.90;2432.00;;;;;;4874996;29;20113;-56
2021/09/28 08:15:36;;;;;;;16.45;14.63;;;640.90;2432.00;;;;;;4877004;29;20033;-69
2021/09/28 08:18:03;;;;;;;15.85;13.90;;;665.70;2432.00;;;;;;4876905;29;20029;-64
2021/09/28 08:20:29;;;;;;;19.20;14.38;;;666.00;2432.00;;;;;;4877457;29;20021;-55
2021/09/28 08:22:57;;;;;;;16.05;13.27;;;666.00;2432.00;;;;;;4877031;29;20438;-55
2021/09/28 08:25:33;;;;;;;15.40;13.00;;;665.70;2432.00;;;;;;4870704;29;20044;-56
2021/09/28 08:30:44;;;;;;;16.23;14.38;;;665.90;2432.00;;;;;;4865752;29;20543;-55
2021/09/28 08:33:09;;;;;;;15.48;13.95;;;640.90;2432.00;;;;;;4865251;29;20065;-57
2021/09/28 08:35:35;;;;;;;16.65;14.93;;;640.60;2432.00;;;;;;4866261;29;20517;-57
2021/09/28 08:38:01;;;;;;;16.27;13.93;;;640.90;2432.00;;;;;;4868931;29;20364;-55
2021/09/28 08:40:27;;;;;;;18.52;15.35;;;666.20;2432.00;;;;;;4869516;29;20549;-54
2021/09/28 08:42:55;;;;;;;17.25;15.23;;;666.00;2432.00;;;;;;4869202;29;20120;-53
2021/09/28 08:45:22;;;;;;;16.98;14.30;;;665.70;2432.00;;;;;;4867327;29;20408;-53
2021/09/28 08:47:48;;;;;;;16.08;14.23;;;640.90;2432.00;;;;;;4869384;29;20039;-54
2021/09/28 08:50:19;;;;;;;17.00;14.45;;;640.70;2432.00;;;;;;4869101;29;20025;-52
2021/09/28 08:52:47;;;;;;;17.08;14.35;;;640.30;2432.00;;;;;;4862176;29;20028;-51
2021/09/28 08:55:13;;;;;;;17.45;15.48;;;640.00;2432.00;;;;;;4860602;29;20207;-52
2021/09/28 08:57:41;;;;;;;16.58;14.48;;;640.00;2432.00;;;;;;4869467;29;20560;-52
2021/09/28 09:00:27;;;;;;;17.10;14.82;;;615.10;2432.00;;;;;;4868632;29;20029;-53
2021/09/28 09:02:53;;;;;;;16.85;15.05;;;615.20;2432.00;;;;;;4869314;29;20036;-54
2021/09/28 09:05:19;;;;;;;15.05;13.63;;;640.00;2432.00;;;;;;4862200;29;20037;-53
2021/09/28 09:08:05;;;;;;;17.30;14.80;;;640.00;2432.00;;;;;;4860403;29;20358;-52
2021/09/28 09:10:34;;;;;;;18.90;14.70;;;640.10;2432.00;;;;;;4859759;29;20053;-53
2021/09/28 09:13:00;;;;;;;16.25;14.35;;;640.40;2432.00;;;;;;4861737;29;20037;-54
2021/09/28 09:15:34;;;;;;;20.52;15.63;;;640.90;2432.00;;;;;;4860260;29;20102;-52
2021/09/28 09:18:05;;;;;;;16.00;14.27;;;640.80;2432.00;;;;;;4861579;29;20085;-54
2021/09/28 09:20:42;;;;;;;16.23;13.85;;;665.60;2432.00;;;;;;4859810;29;20021;-53
2021/09/28 09:23:28;;;;;;;17.08;14.98;;;665.70;2432.00;;;;;;4868772;29;20037;-56
2021/09/28 09:26:18;;;;;;;19.70;14.10;;;666.00;2432.00;;;;;;4864997;29;20093;-52
2021/09/28 09:28:53;;;;;;;12.85;10.98;;;665.80;2432.00;;;;;;4859693;29;20022;-51
2021/09/28 09:31:25;;;;;;;13.40;12.00;;;665.90;2432.00;;;;;;4874247;29;20053;-53
2021/09/28 09:33:54;;;;;;;15.43;13.48;;;665.60;2432.00;;;;;;4876032;29;20041;-52
2021/09/28 09:36:22;;;;;;;14.02;12.65;;;665.90;2432.00;;;;;;4874697;29;20480;-52
2021/09/28 09:38:54;;;;;;;15.43;12.48;;;666.10;2432.00;;;;;;4876453;29;20062;-53
2021/09/28 09:41:29;;;;;;;13.55;12.23;;;666.30;2432.00;;;;;;4876380;29;20021;-53
2021/09/28 09:44:09;;;;;;;14.43;12.07;;;666.50;2432.00;;;;;;4875874;29;20029;-52
2021/09/28 09:46:47;;;;;;;13.25;11.45;;;665.90;2432.00;;;;;;4862083;29;20507;-54
2021/09/28 09:49:21;;;;;;;13.05;11.70;;;666.30;2432.00;;;;;;4859544;29;20026;-54
2021/09/28 09:51:49;;;;;;;14.07;11.70;;;665.60;2432.00;;;;;;4859643;29;20113;-55
2021/09/28 09:54:15;;;;;;;12.35;10.75;;;665.70;2432.00;;;;;;4859310;29;20026;-52
2021/09/28 09:56:44;;;;;;;14.52;12.30;;;666.10;2432.00;;;;;;4859261;29;20077;-52
2021/09/28 09:59:11;;;;;;;12.80;11.50;;;666.50;2432.00;;;;;;4867052;29;20084;-54
2021/09/28 10:01:36;;;;;;;13.27;11.88;;;666.50;2432.00;;;;;;4869662;29;20495;-53
2021/09/28 10:04:10;;;;;;;13.77;12.35;;;691.20;2432.00;;;;;;4865772;29;20049;-53
2021/09/28 10:06:36;;;;;;;14.20;12.18;;;691.40;2432.00;;;;;;4879240;29;20032;-53
2021/09/28 10:09:11;;;;;;;12.75;11.45;;;666.30;2432.00;;;;;;4879173;29;20033;-54
2021/09/28 10:11:38;;;;;;;14.23;12.82;;;666.50;2432.00;;;;;;4863414;29;20177;-54
2021/09/28 10:14:06;;;;;;;14.65;13.15;;;691.30;2432.00;;;;;;4860216;29;20037;-54
2021/09/28 10:16:35;;;;;;;14.00;12.48;;;691.50;2432.00;;;;;;4860599;29;20392;-54
2021/09/28 10:19:02;;;;;;;15.52;12.38;;;691.30;2432.00;;;;;;4860475;29;20029;-54
2021/09/28 10:21:38;;;;;;;14.60;13.20;;;666.50;2432.00;;;;;;4860356;29;20045;-53
2021/09/28 10:24:30;;;;;;;14.70;13.23;;;666.20;2432.00;;;;;;4860115;29;20112;-54
2021/09/28 10:26:56;;;;;;;14.05;12.63;;;666.30;2432.00;;;;;;4860280;29;20439;-54
2021/09/28 10:29:41;;;;;;;13.43;12.10;;;691.20;2432.00;;;;;;4860142;29;20037;-53
2021/09/28 10:32:24;;;;;;;11.98;10.25;;;691.40;2432.00;;;;;;4860197;29;20049;-53
2021/09/28 10:35:09;;;;;;;12.32;10.05;;;691.40;2432.00;;;;;;4859195;29;20104;-54
2021/09/28 10:37:48;;;;;;;12.05;10.85;;;691.20;2406.40;;;;;;4859988;29;20104;-54
2021/09/28 10:40:20;;;;;;;12.55;10.43;;;691.20;2432.00;;;;;;4852494;29;20034;-54
2021/09/28 10:43:02;;;;;;;12.55;10.27;;;691.40;2406.40;;;;;;4860059;29;20033;-54
2021/09/28 10:45:28;;;;;;;9.35;8.38;;;691.60;2355.20;;;;;;4860062;29;20523;-54
2021/09/28 10:47:55;;;;;;;10.73;9.63;;;691.40;2355.20;;;;;;4859869;29;20025;-54
2021/09/28 10:50:23;;;;;;;11.63;10.43;;;691.20;2355.20;;;;;;4859659;29;20030;-54
2021/09/28 10:52:50;;;;;;;13.20;9.93;;;691.20;2355.20;;;;;;4859791;29;20477;-54
2021/09/28 10:55:15;;;;;;;10.77;9.73;;;691.30;2380.80;;;;;;4859836;29;20038;-54
2021/09/28 11:00:40;;;;;;;14.65;10.57;;;666.00;2432.00;;;;;;4857803;29;20044;-53
2021/09/28 11:03:08;;;;;;;9.15;8.25;;;665.60;2432.00;;;;;;4858030;29;20045;-53
2021/09/28 11:05:37;;;;;;;12.68;10.18;;;640.70;2432.00;;;;;;4857952;29;20089;-55
2021/09/28 11:08:05;;;;;;;10.30;9.00;;;640.60;2432.00;;;;;;4858138;29;20104;-53
2021/09/28 11:10:32;;;;;;;11.80;10.38;;;640.50;2432.00;;;;;;4858176;29;20134;-53
2021/09/28 11:13:04;;;;;;;11.85;10.13;;;640.60;2432.00;;;;;;4858095;29;20033;-53
2021/09/28 11:15:29;;;;;;;11.43;10.27;;;640.60;2432.00;;;;;;4857630;29;20183;-54
2021/09/28 11:17:55;;;;;;;11.73;9.98;;;640.60;2432.00;;;;;;4857880;29;20065;-54
2021/09/28 11:20:25;;;;;;;12.18;10.98;;;640.40;2432.00;;;;;;4857722;29;20065;-54
2021/09/28 11:22:58;;;;;;;10.82;9.73;;;640.20;2432.00;;;;;;4857948;29;20064;-54
2021/09/28 11:25:23;;;;;;;;;;;640.40;2432.00;;;;;;4857997;29;20481;-53
2021/09/28 11:28:07;;;;;;;13.82;12.27;;;640.10;2432.00;;;;;;4857282;29;19933;-53
2021/09/28 11:30:34;;;;;;;13.25;11.85;;;640.00;2432.00;;;;;;4857324;29;20083;-54
2021/09/28 11:33:05;;;;;;;15.38;12.35;;;615.20;2432.00;;;;;;4857669;29;20721;-54
2021/09/28 11:35:32;;;;;;;14.13;11.77;;;615.30;2432.00;;;;;;4857408;29;20093;-54
2021/09/28 11:37:59;;;;;;;13.18;11.88;;;640.00;2432.00;;;;;;4840539;29;20045;-53
2021/09/28 11:40:36;;;;;;;14.25;12.73;;;640.00;2432.00;;;;;;4856853;29;20034;-54
2021/09/28 11:43:18;;;;;;;17.83;14.15;;;640.10;2432.00;;;;;;4840836;29;20362;-54
2021/09/28 11:45:43;;;;;;;14.50;12.80;;;640.10;2432.00;;;;;;4857072;29;20044;-54
2021/09/28 11:48:09;;;;;;;24.40;14.10;;;640.10;2432.00;;;;;;4857586;29;20418;-53
2021/09/28 11:50:35;;;;;;;16.17;11.80;;;615.20;2432.00;;;;;;4857033;29;20085;-55
2021/09/28 11:53:10;;;;;;;15.07;13.48;;;615.10;2432.00;;;;;;4857774;29;20025;-54
2021/09/28 11:55:36;;;;;;;16.92;13.20;;;615.00;2432.00;;;;;;4859269;29;20036;-54
2021/09/28 11:58:03;;;;;;;15.40;13.80;;;614.80;2432.00;;;;;;4858773;29;20030;-55
2021/09/28 12:00:29;;;;;;;15.43;13.85;;;614.60;2432.00;;;;;;4858679;29;20089;-54
2021/09/28 12:03:09;;;;;;;13.55;12.15;;;614.60;2432.00;;;;;;4858438;29;20124;-52
2021/09/28 12:08:22;;;;;;;13.05;11.68;;;614.40;2432.00;;;;;;4858623;29;20388;-54